sensor_id;sensor_type;location;lat;lon;timestamp;temperature;humidity
63371;DHT22;49504;48.336;14.472;2022-10-16T00:04:51;26.10;51.50
63371;DHT22;49504;48.336;14.472;2022-10-16T00:09:54;26.10;51.50
63371;DHT22;49504;48.336;14.472;2022-10-16T00:14:54;26.10;51.50
63371;DHT22;49504;48.336;14.472;2022-10-16T00:19:55;26.10;51.60
63371;DHT22;49504;48.336;14.472;2022-10-16T00:24:58;26.10;51.70
63371;DHT22;49504;48.336;14.472;2022-10-16T00:29:59;26.10;51.60
63371;DHT22;49504;48.336;14.472;2022-10-16T00:34:59;26.10;51.60
63371;DHT22;49504;48.336;14.472;2022-10-16T00:40:02;26.10;51.60
63371;DHT22;49504;48.336;14.472;2022-10-16T00:45:04;26.10;51.50
63371;DHT22;49504;48.336;14.472;2022-10-16T00:50:09;26.10;51.60
63371;DHT22;49504;48.336;14.472;2022-10-16T00:56:50;26.10;51.00
63371;DHT22;49504;48.336;14.472;2022-10-16T01:01:52;26.10;51.60
63371;DHT22;49504;48.336;14.472;2022-10-16T01:06:59;26.10;51.60
63371;DHT22;49504;48.336;14.472;2022-10-16T01:15:48;26.00;50.90
63371;DHT22;49504;48.336;14.472;2022-10-16T01:20:55;26.00;51.50
63371;DHT22;49504;48.336;14.472;2022-10-16T01:26:14;26.00;51.50
63371;DHT22;49504;48.336;14.472;2022-10-16T01:31:24;26.00;51.50
63371;DHT22;49504;48.336;14.472;2022-10-16T01:40:00;26.00;51.00
63371;DHT22;49504;48.336;14.472;2022-10-16T01:45:36;26.00;51.00
63371;DHT22;49504;48.336;14.472;2022-10-16T01:50:38;26.00;51.70
63371;DHT22;49504;48.336;14.472;2022-10-16T01:55:44;26.10;51.80
63371;DHT22;49504;48.336;14.472;2022-10-16T02:00:48;26.10;51.90
63371;DHT22;49504;48.336;14.472;2022-10-16T02:05:51;26.10;52.10
63371;DHT22;49504;48.336;14.472;2022-10-16T02:10:54;26.10;52.00
63371;DHT22;49504;48.336;14.472;2022-10-16T02:15:57;26.10;52.10
63371;DHT22;49504;48.336;14.472;2022-10-16T02:21:00;26.10;52.20
63371;DHT22;49504;48.336;14.472;2022-10-16T02:26:05;26.10;52.10
63371;DHT22;49504;48.336;14.472;2022-10-16T02:37:55;26.00;51.50
63371;DHT22;49504;48.336;14.472;2022-10-16T02:42:56;26.00;52.20
63371;DHT22;49504;48.336;14.472;2022-10-16T02:51:11;26.00;51.60
63371;DHT22;49504;48.336;14.472;2022-10-16T03:00:12;26.00;51.70
63371;DHT22;49504;48.336;14.472;2022-10-16T03:05:15;26.00;52.40
63371;DHT22;49504;48.336;14.472;2022-10-16T03:10:16;26.00;52.40
63371;DHT22;49504;48.336;14.472;2022-10-16T03:15:18;26.00;52.50
63371;DHT22;49504;48.336;14.472;2022-10-16T03:20:19;26.00;52.50
63371;DHT22;49504;48.336;14.472;2022-10-16T03:25:20;26.00;52.60
63371;DHT22;49504;48.336;14.472;2022-10-16T03:30:22;26.00;52.60
63371;DHT22;49504;48.336;14.472;2022-10-16T03:35:24;26.00;52.60
63371;DHT22;49504;48.336;14.472;2022-10-16T03:40:25;26.00;52.60
63371;DHT22;49504;48.336;14.472;2022-10-16T03:45:27;26.00;52.60
63371;DHT22;49504;48.336;14.472;2022-10-16T03:50:28;26.00;52.60
63371;DHT22;49504;48.336;14.472;2022-10-16T03:55:29;26.00;52.60
63371;DHT22;49504;48.336;14.472;2022-10-16T04:00:31;26.00;52.60
63371;DHT22;49504;48.336;14.472;2022-10-16T04:05:32;26.00;52.60
63371;DHT22;49504;48.336;14.472;2022-10-16T04:10:33;26.00;52.60
63371;DHT22;49504;48.336;14.472;2022-10-16T04:15:36;26.00;52.60
63371;DHT22;49504;48.336;14.472;2022-10-16T04:20:36;26.00;52.60
63371;DHT22;49504;48.336;14.472;2022-10-16T04:25:37;26.00;52.60
63371;DHT22;49504;48.336;14.472;2022-10-16T04:30:40;26.00;52.60
63371;DHT22;49504;48.336;14.472;2022-10-16T04:39:41;26.00;51.90
63371;DHT22;49504;48.336;14.472;2022-10-16T04:45:15;26.00;51.90
63371;DHT22;49504;48.336;14.472;2022-10-16T04:51:23;25.90;51.80
63371;DHT22;49504;48.336;14.472;2022-10-16T04:56:24;26.00;52.50
63371;DHT22;49504;48.336;14.472;2022-10-16T05:04:51;26.00;51.90
63371;DHT22;49504;48.336;14.472;2022-10-16T05:09:52;26.10;52.60
63371;DHT22;49504;48.336;14.472;2022-10-16T05:14:53;26.20;52.20
63371;DHT22;49504;48.336;14.472;2022-10-16T05:19:55;26.40;52.70
63371;DHT22;49504;48.336;14.472;2022-10-16T05:24:56;26.60;52.60
63371;DHT22;49504;48.336;14.472;2022-10-16T05:29:57;26.80;51.80
63371;DHT22;49504;48.336;14.472;2022-10-16T05:34:59;27.00;51.00
63371;DHT22;49504;48.336;14.472;2022-10-16T05:40:00;27.20;50.20
63371;DHT22;49504;48.336;14.472;2022-10-16T05:45:58;27.30;49.80
63371;DHT22;49504;48.336;14.472;2022-10-16T05:51:02;27.40;49.50
63371;DHT22;49504;48.336;14.472;2022-10-16T05:56:05;27.50;49.00
63371;DHT22;49504;48.336;14.472;2022-10-16T06:01:12;27.50;48.80
63371;DHT22;49504;48.336;14.472;2022-10-16T06:06:15;27.50;48.80
63371;DHT22;49504;48.336;14.472;2022-10-16T06:11:19;27.50;48.90
63371;DHT22;49504;48.336;14.472;2022-10-16T06:16:22;27.50;48.80
63371;DHT22;49504;48.336;14.472;2022-10-16T06:21:25;27.40;49.00
63371;DHT22;49504;48.336;14.472;2022-10-16T06:26:28;27.40;49.00
63371;DHT22;49504;48.336;14.472;2022-10-16T06:31:31;27.30;48.80
63371;DHT22;49504;48.336;14.472;2022-10-16T06:36:32;27.20;48.70
63371;DHT22;49504;48.336;14.472;2022-10-16T06:43:39;27.10;48.70
63371;DHT22;49504;48.336;14.472;2022-10-16T06:50:11;27.10;48.80
63371;DHT22;49504;48.336;14.472;2022-10-16T06:55:12;27.10;49.10
63371;DHT22;49504;48.336;14.472;2022-10-16T07:00:14;27.00;48.80
63371;DHT22;49504;48.336;14.472;2022-10-16T07:08:13;26.90;48.80
63371;DHT22;49504;48.336;14.472;2022-10-16T07:13:14;26.90;49.00
63371;DHT22;49504;48.336;14.472;2022-10-16T07:18:15;26.90;47.50
63371;DHT22;49504;48.336;14.472;2022-10-16T07:24:46;26.70;46.30
63371;DHT22;49504;48.336;14.472;2022-10-16T07:29:47;26.70;44.30
63371;DHT22;49504;48.336;14.472;2022-10-16T07:39:27;26.60;45.20
63371;DHT22;49504;48.336;14.472;2022-10-16T07:49:10;26.40;45.40
63371;DHT22;49504;48.336;14.472;2022-10-16T07:54:11;26.50;45.00
63371;DHT22;49504;48.336;14.472;2022-10-16T08:00:47;26.30;45.40
63371;DHT22;49504;48.336;14.472;2022-10-16T08:05:48;26.30;45.40
63371;DHT22;49504;48.336;14.472;2022-10-16T08:10:49;26.30;45.60
63371;DHT22;49504;48.336;14.472;2022-10-16T08:15:54;26.30;45.90
63371;DHT22;49504;48.336;14.472;2022-10-16T08:20:56;26.20;46.10
63371;DHT22;49504;48.336;14.472;2022-10-16T08:26:03;26.30;46.50
63371;DHT22;49504;48.336;14.472;2022-10-16T08:31:09;26.20;46.70
63371;DHT22;49504;48.336;14.472;2022-10-16T08:39:55;26.20;46.60
63371;DHT22;49504;48.336;14.472;2022-10-16T08:49:22;26.20;47.00
63371;DHT22;49504;48.336;14.472;2022-10-16T08:54:28;26.30;47.60
63371;DHT22;49504;48.336;14.472;2022-10-16T08:59:31;26.30;47.60
63371;DHT22;49504;48.336;14.472;2022-10-16T09:06:46;26.20;47.30
63371;DHT22;49504;48.336;14.472;2022-10-16T09:11:55;26.30;48.00
63371;DHT22;49504;48.336;14.472;2022-10-16T09:17:01;26.30;48.10
63371;DHT22;49504;48.336;14.472;2022-10-16T09:22:12;26.30;48.20
63371;DHT22;49504;48.336;14.472;2022-10-16T09:27:15;26.30;48.10
63371;DHT22;49504;48.336;14.472;2022-10-16T09:32:19;26.30;48.10
63371;DHT22;49504;48.336;14.472;2022-10-16T09:37:24;26.30;48.10
63371;DHT22;49504;48.336;14.472;2022-10-16T09:42:28;26.20;48.20
63371;DHT22;49504;48.336;14.472;2022-10-16T09:51:35;26.20;47.70
63371;DHT22;49504;48.336;14.472;2022-10-16T09:56:38;26.30;48.50
63371;DHT22;49504;48.336;14.472;2022-10-16T10:01:40;26.30;48.50
63371;DHT22;49504;48.336;14.472;2022-10-16T10:06:46;26.30;48.70
63371;DHT22;49504;48.336;14.472;2022-10-16T10:11:51;26.30;48.60
63371;DHT22;49504;48.336;14.472;2022-10-16T10:19:14;26.20;48.10
63371;DHT22;49504;48.336;14.472;2022-10-16T10:24:18;26.20;48.80
63371;DHT22;49504;48.336;14.472;2022-10-16T10:29:34;26.30;49.10
63371;DHT22;49504;48.336;14.472;2022-10-16T10:34:56;26.20;49.10
63371;DHT22;49504;48.336;14.472;2022-10-16T10:40:12;26.30;49.30
63371;DHT22;49504;48.336;14.472;2022-10-16T10:47:42;26.20;48.80
63371;DHT22;49504;48.336;14.472;2022-10-16T10:52:58;26.20;49.60
63371;DHT22;49504;48.336;14.472;2022-10-16T10:58:27;26.20;51.10
63371;DHT22;49504;48.336;14.472;2022-10-16T11:04:00;26.30;51.20
63371;DHT22;49504;48.336;14.472;2022-10-16T11:09:12;26.30;51.80
63371;DHT22;49504;48.336;14.472;2022-10-16T11:14:19;26.30;52.70
63371;DHT22;49504;48.336;14.472;2022-10-16T11:19:31;26.30;53.00
63371;DHT22;49504;48.336;14.472;2022-10-16T11:24:41;26.30;52.40
63371;DHT22;49504;48.336;14.472;2022-10-16T11:29:49;26.30;53.10
63371;DHT22;49504;48.336;14.472;2022-10-16T11:34:59;26.30;53.70
63371;DHT22;49504;48.336;14.472;2022-10-16T11:41:51;26.40;52.70
63371;DHT22;49504;48.336;14.472;2022-10-16T11:47:05;26.40;55.40
63371;DHT22;49504;48.336;14.472;2022-10-16T11:52:17;26.50;56.20
63371;DHT22;49504;48.336;14.472;2022-10-16T11:57:24;26.50;55.90
63371;DHT22;49504;48.336;14.472;2022-10-16T12:08:05;26.50;55.90
63371;DHT22;49504;48.336;14.472;2022-10-16T12:13:31;26.60;55.90
63371;DHT22;49504;48.336;14.472;2022-10-16T12:18:36;26.50;55.70
63371;DHT22;49504;48.336;14.472;2022-10-16T12:23:52;26.60;57.30
63371;DHT22;49504;48.336;14.472;2022-10-16T12:29:09;26.60;57.40
63371;DHT22;49504;48.336;14.472;2022-10-16T12:34:21;26.60;57.50
63371;DHT22;49504;48.336;14.472;2022-10-16T12:39:28;26.60;57.30
63371;DHT22;49504;48.336;14.472;2022-10-16T12:47:54;26.60;56.20
63371;DHT22;49504;48.336;14.472;2022-10-16T12:52:55;26.60;57.50
63371;DHT22;49504;48.336;14.472;2022-10-16T13:00:48;26.60;55.20
63371;DHT22;49504;48.336;14.472;2022-10-16T13:06:07;26.70;55.80
63371;DHT22;49504;48.336;14.472;2022-10-16T13:11:19;26.60;55.40
63371;DHT22;49504;48.336;14.472;2022-10-16T13:16:36;26.60;55.30
63371;DHT22;49504;48.336;14.472;2022-10-16T14:31:33;26.70;53.80
63371;DHT22;49504;48.336;14.472;2022-10-16T14:36:34;26.90;53.30
63371;DHT22;49504;48.336;14.472;2022-10-16T14:41:45;26.90;53.00
63371;DHT22;49504;48.336;14.472;2022-10-16T14:54:14;26.80;52.70
63371;DHT22;49504;48.336;14.472;2022-10-16T15:02:52;26.80;53.00
63371;DHT22;49504;48.336;14.472;2022-10-16T15:07:54;26.80;54.50
63371;DHT22;49504;48.336;14.472;2022-10-16T15:12:56;26.80;54.70
63371;DHT22;49504;48.336;14.472;2022-10-16T15:17:59;26.80;54.70
63371;DHT22;49504;48.336;14.472;2022-10-16T15:26:46;26.80;53.80
63371;DHT22;49504;48.336;14.472;2022-10-16T15:33:01;26.70;53.60
63371;DHT22;49504;48.336;14.472;2022-10-16T15:38:02;26.70;53.90
63371;DHT22;49504;48.336;14.472;2022-10-16T15:47:19;26.60;53.00
63371;DHT22;49504;48.336;14.472;2022-10-16T15:52:20;26.60;53.30
63371;DHT22;49504;48.336;14.472;2022-10-16T15:57:21;26.60;53.30
63371;DHT22;49504;48.336;14.472;2022-10-16T16:06:51;26.60;53.10
63371;DHT22;49504;48.336;14.472;2022-10-16T16:11:52;26.60;53.60
63371;DHT22;49504;48.336;14.472;2022-10-16T16:16:53;26.60;53.70
63371;DHT22;49504;48.336;14.472;2022-10-16T16:21:55;26.50;53.70
63371;DHT22;49504;48.336;14.472;2022-10-16T16:26:56;26.60;53.80
63371;DHT22;49504;48.336;14.472;2022-10-16T16:36:36;26.50;53.00
63371;DHT22;49504;48.336;14.472;2022-10-16T16:41:37;26.50;53.40
63371;DHT22;49504;48.336;14.472;2022-10-16T16:46:38;26.50;53.20
63371;DHT22;49504;48.336;14.472;2022-10-16T16:51:41;26.50;53.20
63371;DHT22;49504;48.336;14.472;2022-10-16T16:56:42;26.50;53.20
63371;DHT22;49504;48.336;14.472;2022-10-16T17:01:43;26.50;53.20
63371;DHT22;49504;48.336;14.472;2022-10-16T17:06:45;26.50;53.10
63371;DHT22;49504;48.336;14.472;2022-10-16T17:15:05;26.50;52.90
63371;DHT22;49504;48.336;14.472;2022-10-16T17:20:08;26.50;53.60
63371;DHT22;49504;48.336;14.472;2022-10-16T17:25:09;26.50;53.70
63371;DHT22;49504;48.336;14.472;2022-10-16T17:30:12;26.50;53.60
63371;DHT22;49504;48.336;14.472;2022-10-16T17:38:49;26.50;53.00
63371;DHT22;49504;48.336;14.472;2022-10-16T17:44:29;26.50;52.90
63371;DHT22;49504;48.336;14.472;2022-10-16T17:49:29;26.50;53.50
63371;DHT22;49504;48.336;14.472;2022-10-16T17:54:30;26.50;53.40
63371;DHT22;49504;48.336;14.472;2022-10-16T18:01:26;26.50;52.80
63371;DHT22;49504;48.336;14.472;2022-10-16T18:10:19;26.40;52.70
63371;DHT22;49504;48.336;14.472;2022-10-16T18:15:20;26.50;53.30
63371;DHT22;49504;48.336;14.472;2022-10-16T18:22:43;26.40;52.90
63371;DHT22;49504;48.336;14.472;2022-10-16T18:27:44;26.50;53.40
63371;DHT22;49504;48.336;14.472;2022-10-16T18:39:40;26.50;52.70
63371;DHT22;49504;48.336;14.472;2022-10-16T18:44:41;26.50;53.10
63371;DHT22;49504;48.336;14.472;2022-10-16T18:49:42;26.50;53.00
63371;DHT22;49504;48.336;14.472;2022-10-16T18:54:44;26.50;53.10
63371;DHT22;49504;48.336;14.472;2022-10-16T18:59:45;26.50;53.00
63371;DHT22;49504;48.336;14.472;2022-10-16T19:06:19;26.40;52.60
63371;DHT22;49504;48.336;14.472;2022-10-16T19:15:01;26.40;52.60
63371;DHT22;49504;48.336;14.472;2022-10-16T19:24:11;26.40;52.60
63371;DHT22;49504;48.336;14.472;2022-10-16T19:29:14;26.50;53.20
63371;DHT22;49504;48.336;14.472;2022-10-16T19:34:14;26.40;53.10
63371;DHT22;49504;48.336;14.472;2022-10-16T19:39:17;26.50;53.20
63371;DHT22;49504;48.336;14.472;2022-10-16T19:44:18;26.40;53.20
63371;DHT22;49504;48.336;14.472;2022-10-16T19:49:19;26.50;53.30
63371;DHT22;49504;48.336;14.472;2022-10-16T19:55:31;26.40;52.70
63371;DHT22;49504;48.336;14.472;2022-10-16T20:00:32;26.40;53.20
63371;DHT22;49504;48.336;14.472;2022-10-16T20:05:33;26.40;53.20
63371;DHT22;49504;48.336;14.472;2022-10-16T20:10:35;26.40;53.10
63371;DHT22;49504;48.336;14.472;2022-10-16T20:19:03;26.40;52.60
63371;DHT22;49504;48.336;14.472;2022-10-16T20:24:04;26.40;52.80
63371;DHT22;49504;48.336;14.472;2022-10-16T20:29:06;26.40;52.90
63371;DHT22;49504;48.336;14.472;2022-10-16T20:34:10;26.40;53.00
63371;DHT22;49504;48.336;14.472;2022-10-16T20:39:12;26.40;53.00
63371;DHT22;49504;48.336;14.472;2022-10-16T20:44:12;26.40;53.10
63371;DHT22;49504;48.336;14.472;2022-10-16T20:49:15;26.40;53.10
63371;DHT22;49504;48.336;14.472;2022-10-16T20:54:16;26.40;53.10
63371;DHT22;49504;48.336;14.472;2022-10-16T21:01:12;26.40;52.60
63371;DHT22;49504;48.336;14.472;2022-10-16T21:13:01;26.40;52.50
63371;DHT22;49504;48.336;14.472;2022-10-16T21:18:02;26.40;52.80
63371;DHT22;49504;48.336;14.472;2022-10-16T21:23:03;26.40;53.00
63371;DHT22;49504;48.336;14.472;2022-10-16T21:28:05;26.30;52.90
63371;DHT22;49504;48.336;14.472;2022-10-16T21:33:06;26.40;53.00
63371;DHT22;49504;48.336;14.472;2022-10-16T21:39:49;26.30;52.40
63371;DHT22;49504;48.336;14.472;2022-10-16T21:49:57;26.30;52.30
63371;DHT22;49504;48.336;14.472;2022-10-16T21:54:58;26.30;52.70
63371;DHT22;49504;48.336;14.472;2022-10-16T21:59:58;26.30;52.80
63371;DHT22;49504;48.336;14.472;2022-10-16T22:05:01;26.30;52.70
63371;DHT22;49504;48.336;14.472;2022-10-16T22:10:02;26.40;52.80
63371;DHT22;49504;48.336;14.472;2022-10-16T22:15:03;26.30;52.70
63371;DHT22;49504;48.336;14.472;2022-10-16T22:20:08;26.30;52.60
63371;DHT22;49504;48.336;14.472;2022-10-16T22:25:09;26.30;52.60
63371;DHT22;49504;48.336;14.472;2022-10-16T22:30:10;26.30;52.60
63371;DHT22;49504;48.336;14.472;2022-10-16T22:35:13;26.30;52.50
63371;DHT22;49504;48.336;14.472;2022-10-16T22:40:14;26.40;52.50
63371;DHT22;49504;48.336;14.472;2022-10-16T22:45:15;26.30;52.40
63371;DHT22;49504;48.336;14.472;2022-10-16T22:50:17;26.30;52.40
63371;DHT22;49504;48.336;14.472;2022-10-16T22:55:18;26.30;52.40
63371;DHT22;49504;48.336;14.472;2022-10-16T23:00:19;26.30;52.40
63371;DHT22;49504;48.336;14.472;2022-10-16T23:05:22;26.30;52.30
63371;DHT22;49504;48.336;14.472;2022-10-16T23:10:23;26.30;52.20
63371;DHT22;49504;48.336;14.472;2022-10-16T23:15:24;26.30;52.30
63371;DHT22;49504;48.336;14.472;2022-10-16T23:20:26;26.30;52.90
63371;DHT22;49504;48.336;14.472;2022-10-16T23:25:27;26.30;52.20
63371;DHT22;49504;48.336;14.472;2022-10-16T23:31:29;26.20;51.70
63371;DHT22;49504;48.336;14.472;2022-10-16T23:36:30;26.30;52.10
63371;DHT22;49504;48.336;14.472;2022-10-16T23:41:31;26.30;52.20
63371;DHT22;49504;48.336;14.472;2022-10-16T23:46:33;26.30;52.20
63371;DHT22;49504;48.336;14.472;2022-10-16T23:51:34;26.20;52.00
63371;DHT22;49504;48.336;14.472;2022-10-16T23:56:35;26.30;52.10
